createdAt,value
2018-06-09T00:01:33.899Z,100113.38
2018-06-09T00:04:02.201Z,100108.92
2018-06-09T00:06:30.360Z,100108.61
2018-06-09T00:08:58.725Z,100109.96
2018-06-09T00:11:27.066Z,100110.20
2018-06-09T00:13:55.269Z,100111.56
2018-06-09T00:16:23.494Z,100111.56
2018-06-09T00:18:52.742Z,100104.70
2018-06-09T00:21:21.099Z,100112.94
2018-06-09T00:23:49.317Z,100112.08
2018-06-09T00:26:17.745Z,100103.59
2018-06-09T00:28:45.925Z,100114.13
2018-06-09T00:31:14.229Z,100098.95
2018-06-09T00:33:42.600Z,100103.01
2018-06-09T00:36:11.296Z,100095.43
2018-06-09T00:38:39.651Z,100106.05
2018-06-09T00:41:07.967Z,100102.80
2018-06-09T00:43:36.166Z,100108.44
2018-06-09T00:46:04.377Z,100117.34
2018-06-09T00:48:32.737Z,100116.02
2018-06-09T00:51:00.932Z,100116.62
2018-06-09T00:53:29.096Z,100118.48
2018-06-09T00:56:08.557Z,100119.28
2018-06-09T00:58:36.695Z,100123.06
2018-06-09T01:01:04.887Z,100116.55
2018-06-09T01:03:33.055Z,100105.98
2018-06-09T01:06:01.193Z,100110.88
2018-06-09T01:08:29.380Z,100113.12
2018-06-09T01:10:57.607Z,100113.12
2018-06-09T01:13:25.730Z,100114.18
2018-06-09T01:15:53.884Z,100120.48
2018-06-09T01:18:22.036Z,100114.71
2018-06-09T01:20:50.163Z,100113.70
2018-06-09T01:23:18.410Z,100112.63
2018-06-09T01:25:46.581Z,100106.33
2018-06-09T01:28:14.743Z,100107.16
2018-06-09T01:30:42.914Z,100109.58
2018-06-09T01:33:11.077Z,100110.88
2018-06-09T01:35:39.224Z,100119.02
2018-06-09T01:38:07.370Z,100115.14
2018-06-09T01:40:35.502Z,100120.74
2018-06-09T01:43:03.663Z,100118.59
2018-06-09T01:45:31.807Z,100114.50
2018-06-09T01:48:00.008Z,100114.50
2018-06-09T01:50:28.142Z,100110.52
2018-06-09T01:52:56.307Z,100100.41
2018-06-09T01:55:24.511Z,100103.30
2018-06-09T01:57:52.650Z,100103.27
2018-06-09T02:00:20.827Z,100108.92
2018-06-09T02:02:48.984Z,100113.02
2018-06-09T02:05:17.139Z,100111.69
2018-06-09T02:07:45.292Z,100108.25
2018-06-09T02:10:13.470Z,100109.05
2018-06-09T02:12:41.605Z,100109.78
2018-06-09T02:15:09.772Z,100107.33
2018-06-09T02:17:37.950Z,100114.58
2018-06-09T02:20:06.143Z,100115.37
2018-06-09T02:22:34.292Z,100104.30
2018-06-09T02:25:02.499Z,100102.05
2018-06-09T02:27:30.640Z,100110.25
2018-06-09T02:29:58.818Z,100097.09
2018-06-09T02:32:27.003Z,100103.88
2018-06-09T02:34:55.163Z,100107.14
2018-06-09T02:37:23.310Z,100104.27
2018-06-09T02:39:51.459Z,100107.96
2018-06-09T02:42:19.623Z,100108.48
2018-06-09T02:44:47.796Z,100113.56
2018-06-09T02:47:15.982Z,100114.02
2018-06-09T02:49:44.134Z,100120.19
2018-06-09T02:52:12.309Z,100118.83
2018-06-09T02:54:45.470Z,100119.63
2018-06-09T02:57:13.626Z,100122.59
2018-06-09T02:59:41.816Z,100116.02
2018-06-09T03:02:09.968Z,100120.33
2018-06-09T03:04:38.104Z,100116.69
2018-06-09T03:07:06.323Z,100118.34
2018-06-09T03:09:34.463Z,100119.28
2018-06-09T03:12:02.718Z,100116.23
2018-06-09T03:14:30.872Z,100115.44
2018-06-09T03:16:59.060Z,100121.20
2018-06-09T03:19:27.204Z,100114.69
2018-06-09T03:21:55.352Z,100118.23
2018-06-09T03:24:23.526Z,100121.55
2018-06-09T03:26:51.772Z,100113.16
2018-06-09T03:29:19.906Z,100118.38
2018-06-09T03:31:48.063Z,100115.07
2018-06-09T03:34:16.214Z,100113.56
2018-06-09T03:36:44.373Z,100116.34
2018-06-09T03:39:12.514Z,100113.91
2018-06-09T03:41:40.668Z,100107.17
2018-06-09T03:44:08.851Z,100111.77
2018-06-09T03:46:37.011Z,100118.34
2018-06-09T03:49:05.248Z,100114.81
2018-06-09T03:51:33.407Z,100115.52
2018-06-09T03:54:01.568Z,100112.29
2018-06-09T03:56:29.723Z,100116.84
2018-06-09T03:58:57.878Z,100119.98
2018-06-09T04:01:26.053Z,100118.94
2018-06-09T04:03:54.321Z,100117.14
2018-06-09T04:06:22.491Z,100113.64
2018-06-09T04:08:50.688Z,100112.59
2018-06-09T04:11:18.949Z,100120.05
2018-06-09T04:13:47.070Z,100122.48
2018-06-09T04:16:15.280Z,100120.05
2018-06-09T04:18:43.424Z,100128.20
2018-06-09T04:21:11.833Z,100128.80
2018-06-09T04:23:39.956Z,100140.81
2018-06-09T04:26:08.180Z,100143.40
2018-06-09T04:28:36.319Z,100143.51
2018-06-09T04:31:04.492Z,100144.59
2018-06-09T04:33:32.658Z,100145.42
2018-06-09T04:36:00.776Z,100140.89
2018-06-09T04:38:28.932Z,100145.65
2018-06-09T04:40:57.080Z,100146.77
2018-06-09T04:43:25.303Z,100149.87
2018-06-09T04:45:53.479Z,100153.99
2018-06-09T04:48:21.647Z,100145.97
2018-06-09T04:50:49.821Z,100143.06
2018-06-09T04:53:17.959Z,100134.80
2018-06-09T04:55:46.111Z,100140.03
2018-06-09T04:58:14.341Z,100143.64
2018-06-09T05:00:42.486Z,100139.88
2018-06-09T05:03:10.639Z,100135.08
2018-06-09T05:05:38.811Z,100141.13
2018-06-09T05:08:06.965Z,100143.94
2018-06-09T05:10:35.123Z,100142.40
2018-06-09T05:13:03.302Z,100150.34
2018-06-09T05:15:31.425Z,100147.91
2018-06-09T05:17:59.647Z,100156.89
2018-06-09T05:20:27.796Z,100154.46
2018-06-09T05:22:55.955Z,100152.25
2018-06-09T05:25:24.115Z,100153.59
2018-06-09T05:27:52.266Z,100160.63
2018-06-09T05:30:20.399Z,100150.55
2018-06-09T05:32:48.626Z,100153.25
2018-06-09T05:35:16.808Z,100150.81
2018-06-09T05:37:44.963Z,100152.23
2018-06-09T05:40:13.111Z,100160.74
2018-06-09T05:42:41.258Z,100161.27
2018-06-09T05:45:09.403Z,100160.70
2018-06-09T05:47:37.587Z,100156.29
2018-06-09T05:50:05.735Z,100160.15
2018-06-09T05:52:34.185Z,100167.52
2018-06-09T05:55:02.323Z,100161.27
2018-06-09T05:57:30.460Z,100171.34
2018-06-09T05:59:58.731Z,100171.33
2018-06-09T06:02:26.907Z,100173.52
2018-06-09T06:04:55.033Z,100180.30
2018-06-09T06:07:23.179Z,100180.46
2018-06-09T06:09:51.375Z,100179.96
2018-06-09T06:12:19.594Z,100168.23
2018-06-09T06:14:47.724Z,100170.95
2018-06-09T06:17:15.874Z,100173.10
2018-06-09T06:19:44.032Z,100178.85
2018-06-09T06:22:12.187Z,100180.50
2018-06-09T06:24:40.339Z,100184.36
2018-06-09T06:27:08.483Z,100184.92
2018-06-09T06:29:36.643Z,100188.98
2018-06-09T06:32:04.802Z,100188.70
2018-06-09T06:34:32.938Z,100186.52
2018-06-09T06:37:01.105Z,100190.79
2018-06-09T06:39:29.270Z,100191.56
2018-06-09T06:41:57.436Z,100191.03
2018-06-09T06:44:25.612Z,100194.59
2018-06-09T06:46:53.799Z,100196.09
2018-06-09T06:49:21.976Z,100195.80
2018-06-09T06:51:50.143Z,100202.03
2018-06-09T06:54:18.278Z,100200.62
2018-06-09T06:56:46.419Z,100206.92
2018-06-09T06:59:14.654Z,100209.27
2018-06-09T07:01:42.820Z,100216.95
2018-06-09T07:04:10.967Z,100204.66
2018-06-09T07:06:39.123Z,100198.09
2018-06-09T07:09:08.287Z,100205.86
2018-06-09T07:11:36.692Z,100205.23
2018-06-09T07:14:04.845Z,100202.95
2018-06-09T07:16:33.005Z,100205.75
2018-06-09T07:19:01.407Z,100204.23
2018-06-09T07:21:29.551Z,100203.16
2018-06-09T07:23:57.814Z,100198.56
2018-06-09T07:26:26.069Z,100199.52
2018-06-09T07:28:54.195Z,100192.17
2018-06-09T07:31:22.349Z,100196.23
2018-06-09T07:33:50.551Z,100194.69
2018-06-09T07:36:18.683Z,100192.23
2018-06-09T07:38:46.830Z,100193.38
2018-06-09T07:41:15.017Z,100200.39
2018-06-09T07:43:43.175Z,100200.84
2018-06-09T07:46:11.359Z,100198.38
2018-06-09T07:48:39.554Z,100200.44
2018-06-09T07:51:07.706Z,100189.95
2018-06-09T07:53:35.895Z,100196.62
2018-06-09T07:56:04.123Z,100195.55
2018-06-09T07:58:32.376Z,100189.30
2018-06-09T08:01:01.140Z,100188.20
2018-06-09T08:03:29.284Z,100189.12
2018-06-09T08:05:58.299Z,100195.78
2018-06-09T08:08:26.440Z,100192.56
2018-06-09T08:10:54.597Z,100186.72
2018-06-09T08:13:22.772Z,100184.39
2018-06-09T08:15:50.936Z,100183.46
2018-06-09T08:18:19.084Z,100185.28
2018-06-09T08:20:47.384Z,100183.08
2018-06-09T08:23:15.796Z,100182.94
2018-06-09T08:25:44.303Z,100179.24
2018-06-09T08:28:12.585Z,100178.49
2018-06-09T08:30:40.723Z,100169.24
2018-06-09T08:33:08.896Z,100175.50
2018-06-09T08:35:37.059Z,100169.62
2018-06-09T08:38:05.753Z,100163.48
2018-06-09T08:40:33.946Z,100161.12
2018-06-09T08:43:02.109Z,100169.06
2018-06-09T08:45:30.256Z,100166.40
2018-06-09T08:47:58.409Z,100162.02
2018-06-09T08:50:26.581Z,100163.78
2018-06-09T08:52:55.207Z,100162.64
2018-06-09T08:55:23.359Z,100157.78
2018-06-09T08:57:51.510Z,100156.96
2018-06-09T09:00:19.638Z,100156.25
2018-06-09T09:02:47.859Z,100159.00
2018-06-09T09:05:16.007Z,100155.02
2018-06-09T09:07:44.156Z,100156.17
2018-06-09T09:10:12.357Z,100150.91
2018-06-09T09:12:40.497Z,100152.13
2018-06-09T09:15:08.687Z,100151.55
2018-06-09T09:17:36.814Z,100154.84
2018-06-09T09:20:04.964Z,100158.71
2018-06-09T09:22:33.122Z,100145.87
2018-06-09T09:25:01.275Z,100152.36
2018-06-09T09:27:29.414Z,100149.84
2018-06-09T09:29:57.571Z,100143.77
2018-06-09T09:32:25.728Z,100141.52
2018-06-09T09:34:53.886Z,100143.62
2018-06-09T09:37:22.034Z,100143.45
2018-06-09T09:39:50.197Z,100141.17
2018-06-09T09:42:18.386Z,100138.98
2018-06-09T09:44:46.548Z,100145.05
2018-06-09T09:47:14.710Z,100139.85
2018-06-09T09:49:42.924Z,100141.08
2018-06-09T09:52:11.068Z,100137.38
2018-06-09T09:54:40.524Z,100140.75
2018-06-09T09:57:08.667Z,100139.31
2018-06-09T09:59:36.848Z,100140.69
2018-06-09T10:02:05.008Z,100131.64
2018-06-09T10:04:33.212Z,100136.75
2018-06-09T10:07:01.379Z,100138.44
2018-06-09T10:09:29.592Z,100139.33
2018-06-09T10:11:57.824Z,100133.70
2018-06-09T10:14:25.975Z,100133.97
2018-06-09T10:17:00.652Z,100131.56
2018-06-09T10:19:28.814Z,100137.61
2018-06-09T10:21:56.949Z,100137.31
2018-06-09T10:24:25.145Z,100140.25
2018-06-09T10:26:53.433Z,100139.98
2018-06-09T10:29:21.602Z,100133.13
2018-06-09T10:31:49.776Z,100132.52
2018-06-09T10:34:17.975Z,100133.70
2018-06-09T10:36:46.162Z,100134.30
2018-06-09T10:39:14.364Z,100128.37
2018-06-09T10:41:42.600Z,100128.59
2018-06-09T10:44:10.744Z,100126.86
2018-06-09T10:46:38.894Z,100123.84
2018-06-09T10:49:07.077Z,100116.99
2018-06-09T10:51:35.256Z,100123.82
2018-06-09T10:54:03.418Z,100116.03
2018-06-09T10:56:31.590Z,100114.36
2018-06-09T10:58:59.735Z,100115.11
2018-06-09T11:01:27.883Z,100115.45
2018-06-09T11:03:56.040Z,100107.49
2018-06-09T11:06:24.199Z,100109.54
2018-06-09T11:08:52.354Z,100106.05
2018-06-09T11:11:20.515Z,100100.53
2018-06-09T11:13:48.760Z,100102.39
2018-06-09T11:16:16.896Z,100097.22
2018-06-09T11:18:45.092Z,100091.37
2018-06-09T11:21:13.285Z,100091.78
2018-06-09T11:23:41.419Z,100088.61
2018-06-09T11:26:09.570Z,100086.56
2018-06-09T11:28:37.744Z,100082.19
2018-06-09T11:31:05.880Z,100078.67
2018-06-09T11:33:34.037Z,100077.73
2018-06-09T11:36:02.207Z,100069.85
2018-06-09T11:38:30.441Z,100068.27
2018-06-09T11:40:58.671Z,100063.39
2018-06-09T11:43:26.827Z,100057.59
2018-06-09T11:45:55.033Z,100052.42
2018-06-09T11:48:23.233Z,100043.41
2018-06-09T11:50:51.375Z,100040.34
2018-06-09T11:53:19.524Z,100045.03
2018-06-09T11:55:47.727Z,100038.04
2018-06-09T11:58:15.884Z,100031.14
2018-06-09T12:00:44.023Z,100026.39
2018-06-09T12:03:12.191Z,100020.88
2018-06-09T12:05:40.479Z,100018.31
2018-06-09T12:08:08.575Z,100017.97
2018-06-09T12:10:36.786Z,100018.67
2018-06-09T12:13:04.936Z,100013.09
2018-06-09T12:15:33.115Z,100013.31
2018-06-09T12:18:01.263Z,100008.25
2018-06-09T12:20:29.478Z,100001.39
2018-06-09T12:22:57.608Z,99997.57
2018-06-09T12:25:25.750Z,100009.52
2018-06-09T12:27:53.872Z,99995.89
2018-06-09T12:30:22.012Z,99984.86
2018-06-09T12:32:50.201Z,99987.89
2018-06-09T12:35:18.329Z,99983.17
2018-06-09T12:37:46.480Z,99986.91
2018-06-09T12:40:14.629Z,99983.68
2018-06-09T12:42:42.763Z,99984.31
2018-06-09T12:45:10.900Z,99976.08
2018-06-09T12:47:39.071Z,99984.73
2018-06-09T12:50:07.222Z,99976.61
2018-06-09T12:52:35.346Z,99978.48
2018-06-09T12:55:03.508Z,99970.84
2018-06-09T12:57:31.668Z,99961.59
2018-06-09T12:59:59.810Z,99968.76
2018-06-09T13:02:27.950Z,99965.91
2018-06-09T13:04:56.082Z,99965.23
2018-06-09T13:07:24.216Z,99963.47
2018-06-09T13:09:52.394Z,99969.02
2018-06-09T13:12:20.595Z,99964.16
2018-06-09T13:14:48.727Z,99968.46
2018-06-09T13:17:16.868Z,99970.25
2018-06-09T13:19:45.026Z,99966.05
2018-06-09T13:22:13.176Z,99965.20
2018-06-09T13:24:41.343Z,99957.26
2018-06-09T13:27:09.481Z,99955.44
2018-06-09T13:29:37.619Z,99949.51
2018-06-09T13:32:05.758Z,99949.13
2018-06-09T13:34:33.896Z,99950.70
2018-06-09T13:37:02.039Z,99946.13
2018-06-09T13:39:30.166Z,99944.73
2018-06-09T13:41:58.315Z,99944.11
2018-06-09T13:44:26.448Z,99937.52
2018-06-09T13:46:54.709Z,99936.33
2018-06-09T13:49:22.791Z,99932.00
2018-06-09T13:51:50.951Z,99932.06
2018-06-09T13:54:19.108Z,99925.84
2018-06-09T13:56:47.219Z,99921.91
2018-06-09T13:59:15.380Z,99926.09
2018-06-09T14:01:43.560Z,99917.63
2018-06-09T14:04:11.701Z,99916.31
2018-06-09T14:06:39.828Z,99909.20
2018-06-09T14:09:08.360Z,99903.35
2018-06-09T14:11:36.511Z,99903.59
2018-06-09T14:14:04.676Z,99911.25
2018-06-09T14:16:32.840Z,99916.98
2018-06-09T14:19:00.995Z,99916.20
2018-06-09T14:21:29.155Z,99920.98
2018-06-09T14:23:57.289Z,99931.98
2018-06-09T14:26:25.429Z,99934.91
2018-06-09T14:28:53.560Z,99938.50
2018-06-09T14:31:21.736Z,99942.19
2018-06-09T14:33:49.862Z,99945.84
2018-06-09T14:36:18.027Z,99940.53
2018-06-09T14:38:46.302Z,99932.95
2018-06-09T14:41:14.402Z,99930.07
2018-06-09T14:43:42.556Z,99936.59
2018-06-09T14:46:10.703Z,99938.06
2018-06-09T14:48:38.833Z,99938.90
2018-06-09T14:51:06.982Z,99937.17
2018-06-09T14:53:35.123Z,99933.63
2018-06-09T14:56:03.278Z,99943.20
2018-06-09T14:58:31.399Z,99947.84
2018-06-09T15:00:59.540Z,99938.41
2018-06-09T15:03:27.660Z,99930.69
2018-06-09T15:05:55.816Z,99925.50
2018-06-09T15:08:23.988Z,99924.72
2018-06-09T15:10:52.156Z,99926.31
2018-06-09T15:13:20.298Z,99927.31
2018-06-09T15:15:48.439Z,99949.29
2018-06-09T15:18:16.575Z,99955.09
2018-06-09T15:20:44.711Z,99956.02
2018-06-09T15:23:12.834Z,99957.25
2018-06-09T15:25:40.989Z,99960.30
2018-06-09T15:28:09.184Z,99974.45
2018-06-09T15:30:37.287Z,99980.53
2018-06-09T15:33:05.439Z,99983.02
2018-06-09T15:35:33.637Z,99986.58
2018-06-09T15:38:01.782Z,99992.80
2018-06-09T15:40:29.919Z,99993.47
2018-06-09T15:42:58.108Z,99997.69
2018-06-09T15:45:26.247Z,100015.55
2018-06-09T15:47:54.390Z,100012.45
2018-06-09T15:50:22.546Z,100026.33
2018-06-09T15:52:50.716Z,100045.61
2018-06-09T15:55:18.863Z,100054.45
2018-06-09T15:57:47.040Z,100061.70
2018-06-09T16:00:15.191Z,100046.42
2018-06-09T16:02:43.358Z,100043.06
2018-06-09T16:08:04.695Z,100045.56
2018-06-09T16:10:32.844Z,100028.67
2018-06-09T16:13:01.011Z,100030.72
2018-06-09T16:15:29.151Z,100041.25
2018-06-09T16:17:57.467Z,100021.88
2018-06-09T16:20:25.623Z,100035.05
2018-06-09T16:22:53.815Z,100031.42
2018-06-09T16:25:22.007Z,100027.70
2018-06-09T16:27:50.148Z,100020.43
2018-06-09T16:30:18.327Z,100023.15
2018-06-09T16:32:46.526Z,100025.69
2018-06-09T16:35:14.667Z,100015.05
2018-06-09T16:37:42.891Z,100016.95
2018-06-09T16:40:11.063Z,100014.59
2018-06-09T16:42:39.303Z,99999.77
2018-06-09T16:45:07.459Z,100004.59
2018-06-09T16:47:35.657Z,99999.73
2018-06-09T16:50:03.782Z,100006.87
2018-06-09T16:52:31.957Z,100011.73
2018-06-09T16:55:06.479Z,100020.64
2018-06-09T16:57:34.649Z,100017.31
2018-06-09T17:00:02.806Z,100025.34
2018-06-09T17:02:31.086Z,100027.44
2018-06-09T17:04:59.263Z,100029.10
2018-06-09T17:07:27.411Z,100026.07
2018-06-09T17:09:55.567Z,100029.16
2018-06-09T17:12:23.728Z,100030.77
2018-06-09T17:14:51.879Z,100030.44
2018-06-09T17:17:20.214Z,100031.55
2018-06-09T17:19:48.417Z,100032.69
2018-06-09T17:22:16.580Z,100038.50
2018-06-09T17:24:44.739Z,100029.80
2018-06-09T17:27:12.905Z,100031.00
2018-06-09T17:29:41.057Z,100023.13
2018-06-09T17:32:09.398Z,100021.71
2018-06-09T17:34:37.851Z,100024.14
2018-06-09T17:37:06.034Z,100025.22
2018-06-09T17:39:34.203Z,100019.03
2018-06-09T17:42:02.413Z,100022.28
2018-06-09T17:44:30.707Z,100029.88
2018-06-09T17:46:58.839Z,100025.49
2018-06-09T17:49:27.030Z,100027.11
2018-06-09T17:51:55.175Z,100027.39
2018-06-09T17:54:23.360Z,100030.87
2018-06-09T17:56:51.523Z,100038.34
2018-06-09T17:59:19.694Z,100045.19
2018-06-09T18:01:48.228Z,100052.80
2018-06-09T18:04:16.590Z,100059.48
2018-06-09T18:06:45.164Z,100071.48
2018-06-09T18:09:13.588Z,100071.11
2018-06-09T18:11:41.956Z,100074.39
2018-06-09T18:14:10.225Z,100082.59
2018-06-09T18:16:38.525Z,100088.26
2018-06-09T18:19:06.883Z,100093.34
2018-06-09T18:21:35.159Z,100089.61
2018-06-09T18:24:03.426Z,100089.68
2018-06-09T18:26:31.652Z,100087.47
2018-06-09T18:28:59.915Z,100089.65
2018-06-09T18:31:28.213Z,100090.64
2018-06-09T18:33:56.553Z,100085.50
2018-06-09T18:36:24.766Z,100097.36
2018-06-09T18:38:53.117Z,100106.80
2018-06-09T18:41:24.605Z,100104.37
2018-06-09T18:43:53.049Z,100121.91
2018-06-09T18:46:24.033Z,100134.10
2018-06-09T18:48:52.294Z,100146.50
2018-06-09T18:51:20.689Z,100167.47
2018-06-09T18:53:48.953Z,100173.42
2018-06-09T18:56:17.245Z,100182.60
2018-06-09T18:58:45.559Z,100195.06
2018-06-09T19:01:13.751Z,100192.94
2018-06-09T19:03:42.036Z,100200.31
2018-06-09T19:06:10.720Z,100202.27
2018-06-09T19:08:39.025Z,100201.16
2018-06-09T19:11:07.442Z,100188.20
2018-06-09T19:13:35.676Z,100204.62
2018-06-09T19:16:03.960Z,100211.48
2018-06-09T19:18:32.538Z,100215.85
2018-06-09T19:21:01.550Z,100218.95
2018-06-09T19:23:29.801Z,100206.18
2018-06-09T19:25:58.081Z,100226.31
2018-06-09T19:28:26.497Z,100223.05
2018-06-09T19:30:54.793Z,100223.55
2018-06-09T19:33:23.083Z,100217.61
2018-06-09T19:35:51.293Z,100215.95
2018-06-09T19:38:19.674Z,100211.05
2018-06-09T19:40:47.990Z,100202.91
2018-06-09T19:43:16.953Z,100205.09
2018-06-09T19:46:00.498Z,100205.39
2018-06-09T19:48:28.796Z,100208.41
2018-06-09T19:50:57.111Z,100205.16
2018-06-09T19:53:25.555Z,100215.48
2018-06-09T19:55:54.048Z,100213.09
2018-06-09T19:58:22.558Z,100208.83
2018-06-09T20:00:51.025Z,100193.88
2018-06-09T20:03:20.451Z,100203.19
2018-06-09T20:05:48.652Z,100202.63
2018-06-09T20:08:17.074Z,100193.91
2018-06-09T20:10:45.316Z,100189.30
2018-06-09T20:13:13.547Z,100190.38
2018-06-09T20:15:42.020Z,100185.20
2018-06-09T20:18:10.353Z,100173.51
2018-06-09T20:20:38.618Z,100168.58
2018-06-09T20:23:07.945Z,100166.45
2018-06-09T20:25:36.506Z,100159.37
2018-06-09T20:28:08.317Z,100158.25
2018-06-09T20:30:38.320Z,100159.63
2018-06-09T20:33:08.361Z,100151.20
2018-06-09T20:35:36.608Z,100152.81
2018-06-09T20:38:04.914Z,100151.16
2018-06-09T20:40:35.564Z,100143.79
2018-06-09T20:43:03.823Z,100133.47
2018-06-09T20:45:32.079Z,100138.64
2018-06-09T20:48:01.038Z,100151.70
2018-06-09T20:50:30.388Z,100148.41
2018-06-09T20:52:58.657Z,100153.59
2018-06-09T20:55:32.756Z,100159.03
2018-06-09T20:58:05.233Z,100164.75
2018-06-09T21:00:54.344Z,100168.80
2018-06-09T21:03:24.825Z,100174.37
2018-06-09T21:05:53.401Z,100192.70
2018-06-09T21:08:22.607Z,100200.94
2018-06-09T21:10:51.044Z,100203.32
2018-06-09T21:13:19.596Z,100198.62
2018-06-09T21:15:47.884Z,100190.10
2018-06-09T21:18:16.775Z,100187.64
2018-06-09T21:23:39.657Z,100176.94
2018-06-09T21:26:08.529Z,100177.98
2018-06-09T21:28:42.214Z,100179.55
2018-06-09T21:31:15.786Z,100177.41
2018-06-09T21:34:00.771Z,100182.81
2018-06-09T21:36:35.037Z,100183.47
2018-06-09T21:39:10.431Z,100176.69
2018-06-09T21:41:47.837Z,100178.66
2018-06-09T21:44:21.440Z,100170.98
2018-06-09T21:46:50.263Z,100189.66
2018-06-09T21:49:24.764Z,100197.53
2018-06-09T21:51:53.573Z,100206.31
2018-06-09T21:54:22.050Z,100206.55
2018-06-09T21:56:50.395Z,100205.42
2018-06-09T21:59:18.706Z,100212.24
2018-06-09T22:01:46.992Z,100213.45
2018-06-09T22:04:15.293Z,100228.13
2018-06-09T22:06:43.609Z,100234.97
2018-06-09T22:09:11.884Z,100237.36
2018-06-09T22:11:40.267Z,100240.02
2018-06-09T22:14:10.018Z,100241.02
2018-06-09T22:16:39.243Z,100239.85
2018-06-09T22:19:07.590Z,100236.31
2018-06-09T22:21:36.466Z,100236.78
2018-06-09T22:24:05.006Z,100234.64
2018-06-09T22:26:33.278Z,100238.20
2018-06-09T22:29:01.645Z,100239.92
2018-06-09T22:31:30.037Z,100235.55
2018-06-09T22:33:58.352Z,100233.55
2018-06-09T22:36:26.681Z,100230.94
2018-06-09T22:38:54.984Z,100233.53
2018-06-09T22:41:23.260Z,100228.42
2018-06-09T22:43:51.467Z,100217.83
2018-06-09T22:46:20.263Z,100221.13
2018-06-09T22:48:48.595Z,100217.09
2018-06-09T22:51:17.012Z,100220.70
2018-06-09T22:53:45.281Z,100217.20
2018-06-09T22:56:13.611Z,100211.95
2018-06-09T22:58:41.854Z,100213.65
2018-06-09T23:01:10.300Z,100214.41
2018-06-09T23:03:38.742Z,100208.20
2018-06-09T23:06:08.097Z,100204.34
2018-06-09T23:08:36.457Z,100203.20
2018-06-09T23:11:05.516Z,100194.71
2018-06-09T23:13:33.875Z,100191.78
2018-06-09T23:16:02.339Z,100186.55
2018-06-09T23:18:30.586Z,100188.59
2018-06-09T23:20:58.841Z,100189.09
2018-06-09T23:23:27.096Z,100184.75
2018-06-09T23:25:55.537Z,100180.59
2018-06-09T23:28:23.815Z,100185.20
2018-06-09T23:30:52.084Z,100176.79
2018-06-09T23:33:20.410Z,100174.53
2018-06-09T23:35:48.739Z,100172.17
2018-06-09T23:38:17.023Z,100168.64
2018-06-09T23:40:45.426Z,100168.95
2018-06-09T23:43:13.729Z,100161.44
2018-06-09T23:45:42.062Z,100157.51
2018-06-09T23:48:10.472Z,100155.34
2018-06-09T23:50:38.692Z,100147.73
2018-06-09T23:53:06.904Z,100140.98
2018-06-09T23:55:35.260Z,100142.60
2018-06-09T23:58:03.533Z,100136.81
